createdAt,value
2024-02-22T00:00:25.255Z,9.719232
2024-02-22T00:01:25.228Z,9.719316
2024-02-22T00:02:25.224Z,9.719372
2024-02-22T00:03:25.200Z,9.719261
2024-02-22T00:04:25.255Z,9.719191
2024-02-22T00:05:25.372Z,9.719185
2024-02-22T00:06:25.199Z,9.719177
2024-02-22T00:07:25.167Z,9.719194
2024-02-22T00:08:25.148Z,9.719094
2024-02-22T00:09:25.130Z,9.719142
2024-02-22T00:10:25.120Z,9.719157
2024-02-22T00:11:25.210Z,9.719219
2024-02-22T00:12:25.104Z,9.719213
2024-02-22T00:13:25.116Z,9.719243
2024-02-22T00:14:25.101Z,9.719204
2024-02-22T00:15:25.083Z,9.719130
2024-02-22T00:16:25.139Z,9.719121
2024-02-22T00:17:25.127Z,9.719209
2024-02-22T00:18:25.171Z,9.719210
2024-02-22T00:19:25.200Z,9.719157
2024-02-22T00:20:25.077Z,9.719150
2024-02-22T00:21:25.025Z,9.719151
2024-02-22T00:22:25.051Z,9.719106
2024-02-22T00:23:25.027Z,9.719120
2024-02-22T00:24:24.988Z,9.719181
2024-02-22T00:25:24.971Z,9.719181
2024-02-22T00:26:24.962Z,9.719181
2024-02-22T00:27:24.972Z,9.719181
2024-02-22T00:28:24.987Z,9.719181
2024-02-22T00:29:24.946Z,9.719181
2024-02-22T00:30:24.945Z,9.719181
2024-02-22T00:31:24.955Z,9.719374
2024-02-22T00:32:24.986Z,9.719435
2024-02-22T00:33:24.919Z,9.719435
2024-02-22T00:34:24.967Z,9.719549
2024-02-22T00:35:24.962Z,9.719549
2024-02-22T00:36:24.890Z,9.719549
2024-02-22T00:37:24.864Z,9.719549
2024-02-22T00:38:24.858Z,9.719549
2024-02-22T00:39:24.892Z,9.719549
2024-02-22T00:40:24.846Z,9.719549
2024-02-22T00:41:24.869Z,9.719549
2024-02-22T00:42:24.842Z,9.719549
2024-02-22T00:43:24.832Z,9.719549
2024-02-22T00:44:24.822Z,9.719549
2024-02-22T00:45:24.803Z,9.718111
2024-02-22T00:46:24.777Z,9.718237
2024-02-22T00:47:24.860Z,9.718257
2024-02-22T00:48:24.893Z,9.718315
2024-02-22T00:49:24.844Z,9.718365
2024-02-22T00:50:24.860Z,9.718495
2024-02-22T00:51:24.774Z,9.719014
2024-02-22T00:52:24.739Z,9.719046
2024-02-22T00:53:24.735Z,9.719075
2024-02-22T00:54:24.734Z,9.719095
2024-02-22T00:55:24.718Z,9.719118
2024-02-22T00:56:24.689Z,9.719170
2024-02-22T00:57:24.659Z,9.719167
2024-02-22T00:58:24.688Z,9.719169
2024-02-22T00:59:24.682Z,9.719168
2024-02-22T01:00:24.651Z,9.719108
2024-02-22T01:01:24.700Z,9.719108
2024-02-22T01:02:24.614Z,9.719099
2024-02-22T01:03:24.652Z,9.719036
2024-02-22T01:04:24.687Z,9.718987
2024-02-22T01:05:24.763Z,9.719009
2024-02-22T01:06:24.724Z,9.719022
2024-02-22T01:07:24.586Z,9.719080
2024-02-22T01:08:24.580Z,9.719084
2024-02-22T01:09:24.556Z,9.719087
2024-02-22T01:10:24.574Z,9.719045
2024-02-22T01:11:24.603Z,9.719057
2024-02-22T01:12:24.514Z,9.719020
2024-02-22T01:13:24.520Z,9.719060
2024-02-22T01:14:24.520Z,9.719003
2024-02-22T01:15:24.511Z,9.719072
2024-02-22T01:16:24.499Z,9.718990
2024-02-22T01:17:24.498Z,9.719091
2024-02-22T01:18:24.530Z,9.719058
2024-02-22T01:19:24.516Z,9.719081
2024-02-22T01:20:24.474Z,9.719122
2024-02-22T01:21:24.436Z,9.719058
2024-02-22T01:22:24.434Z,9.719093
2024-02-22T01:23:24.424Z,9.719065
2024-02-22T01:24:24.410Z,9.719110
2024-02-22T01:25:24.418Z,9.719055
2024-02-22T01:26:24.437Z,9.719007
2024-02-22T01:27:24.395Z,9.718953
2024-02-22T01:28:24.396Z,9.719026
2024-02-22T01:29:24.355Z,9.719002
2024-02-22T01:30:24.363Z,9.718920
2024-02-22T01:31:24.399Z,9.718958
2024-02-22T01:32:24.369Z,9.718991
2024-02-22T01:33:24.459Z,9.718950
2024-02-22T01:34:24.360Z,9.718990
2024-02-22T01:35:24.414Z,9.719052
2024-02-22T01:36:24.311Z,9.718884
2024-02-22T01:37:24.300Z,9.719049
2024-02-22T01:38:24.361Z,9.719003
2024-02-22T01:39:24.305Z,9.718930
2024-02-22T01:40:24.253Z,9.719018
2024-02-22T01:41:26.028Z,9.719049
2024-02-22T01:42:24.231Z,9.719120
2024-02-22T01:43:24.261Z,9.719151
2024-02-22T01:44:24.209Z,9.718996
2024-02-22T01:45:24.202Z,9.718966
2024-02-22T01:46:24.198Z,9.718971
2024-02-22T01:47:24.203Z,9.718910
2024-02-22T01:48:24.237Z,9.718837
2024-02-22T01:49:24.156Z,9.718905
2024-02-22T01:50:24.151Z,9.718967
2024-02-22T01:51:24.148Z,9.718941
2024-02-22T01:52:24.144Z,9.719015
2024-02-22T01:53:24.118Z,9.718938
2024-02-22T01:54:24.151Z,9.718975
2024-02-22T01:55:24.109Z,9.718973
2024-02-22T01:56:24.117Z,9.719014
2024-02-22T01:57:24.078Z,9.719095
2024-02-22T01:58:24.076Z,9.719092
2024-02-22T01:59:24.098Z,9.719017
2024-02-22T02:00:24.060Z,9.718980
2024-02-22T02:01:24.063Z,9.719013
2024-02-22T02:02:24.048Z,9.719088
2024-02-22T02:03:24.033Z,9.719023
2024-02-22T02:04:24.004Z,9.719032
2024-02-22T02:05:24.103Z,9.719004
2024-02-22T02:06:24.024Z,9.718990
2024-02-22T02:07:24.018Z,9.718957
2024-02-22T02:08:24.004Z,9.719065
2024-02-22T02:09:23.954Z,9.719001
2024-02-22T02:10:23.957Z,9.719107
2024-02-22T02:11:24.046Z,9.719073
2024-02-22T02:12:23.947Z,9.719107
2024-02-22T02:13:23.930Z,9.719186
2024-02-22T02:14:23.963Z,9.718993
2024-02-22T02:15:23.891Z,9.719122
2024-02-22T02:16:23.883Z,9.719074
2024-02-22T02:17:23.904Z,9.718989
2024-02-22T02:18:23.921Z,9.719034
2024-02-22T02:19:23.955Z,9.719096
2024-02-22T02:20:23.962Z,9.719073
2024-02-22T02:21:23.845Z,9.719178
2024-02-22T02:22:23.837Z,9.719115
2024-02-22T02:23:23.823Z,9.719062
2024-02-22T02:24:23.839Z,9.719032
2024-02-22T02:25:23.859Z,9.718967
2024-02-22T02:26:23.832Z,9.719010
2024-02-22T02:27:23.783Z,9.719046
2024-02-22T02:28:23.786Z,9.719066
2024-02-22T02:29:23.816Z,9.719062
2024-02-22T02:30:23.745Z,9.719129
2024-02-22T02:31:23.801Z,9.719172
2024-02-22T02:32:23.782Z,9.719197
2024-02-22T02:33:23.809Z,9.719302
2024-02-22T02:34:23.749Z,9.719269
2024-02-22T02:35:23.780Z,9.719340
2024-02-22T02:36:23.686Z,9.719449
2024-02-22T02:37:23.671Z,9.719487
2024-02-22T02:38:23.693Z,9.719568
2024-02-22T02:39:23.672Z,9.719563
2024-02-22T02:40:23.670Z,9.719423
2024-02-22T02:41:23.691Z,9.719548
2024-02-22T02:42:23.642Z,9.719609
2024-02-22T02:43:23.621Z,9.719413
2024-02-22T02:44:23.701Z,9.719364
2024-02-22T02:45:23.612Z,9.719364
2024-02-22T02:46:23.658Z,9.719364
2024-02-22T02:47:23.599Z,9.719364
2024-02-22T02:48:23.618Z,9.719364
2024-02-22T02:49:23.557Z,9.719364
2024-02-22T02:50:23.578Z,9.719364
2024-02-22T02:51:23.548Z,9.719364
2024-02-22T02:52:23.527Z,9.719364
2024-02-22T02:53:23.671Z,9.719364
2024-02-22T02:54:23.521Z,9.719364
2024-02-22T02:55:23.528Z,9.719202
2024-02-22T02:56:23.550Z,9.719251
2024-02-22T02:57:23.528Z,9.719141
2024-02-22T02:58:23.488Z,9.719076
2024-02-22T02:59:23.554Z,9.719260
2024-02-22T03:00:23.472Z,9.719201
2024-02-22T03:01:23.525Z,9.719049
2024-02-22T03:02:23.651Z,9.719107
2024-02-22T03:03:23.426Z,9.719212
2024-02-22T03:04:23.474Z,9.719244
2024-02-22T03:05:23.516Z,9.719061
2024-02-22T03:06:23.422Z,9.719026
2024-02-22T03:07:23.368Z,9.718987
2024-02-22T03:08:23.421Z,9.718947
2024-02-22T03:09:23.344Z,9.719091
2024-02-22T03:10:23.344Z,9.719172
2024-02-22T03:11:23.411Z,9.719400
2024-02-22T03:12:23.329Z,9.719311
2024-02-22T03:13:23.340Z,9.719236
2024-02-22T03:14:23.380Z,9.719427
2024-02-22T03:15:23.306Z,9.718986
2024-02-22T03:16:23.292Z,9.718945
2024-02-22T03:17:23.327Z,9.719296
2024-02-22T03:18:23.307Z,9.719254
2024-02-22T03:19:23.261Z,9.719272
2024-02-22T03:20:23.276Z,9.719239
2024-02-22T03:21:23.262Z,9.718985
2024-02-22T03:22:23.260Z,9.719203
2024-02-22T03:23:23.240Z,9.719054
2024-02-22T03:24:23.232Z,9.719142
2024-02-22T03:25:23.242Z,9.719225
2024-02-22T03:26:23.205Z,9.719413
2024-02-22T03:27:23.190Z,9.719409
2024-02-22T03:28:23.160Z,9.719206
2024-02-22T03:29:23.318Z,9.719218
2024-02-22T03:30:23.169Z,9.719350
2024-02-22T03:31:23.140Z,9.719456
2024-02-22T03:32:23.164Z,9.719316
2024-02-22T03:33:23.128Z,9.719266
2024-02-22T03:34:23.175Z,9.719208
2024-02-22T03:35:23.138Z,9.719139
2024-02-22T03:36:23.081Z,9.719101
2024-02-22T03:37:23.069Z,9.719040
2024-02-22T03:38:23.212Z,9.719182
2024-02-22T03:39:23.055Z,9.719172
2024-02-22T03:40:23.046Z,9.719110
2024-02-22T03:41:23.022Z,9.719089
2024-02-22T03:42:23.021Z,9.718867
2024-02-22T03:43:23.032Z,9.719206
2024-02-22T03:44:23.003Z,9.719177
2024-02-22T03:45:23.066Z,9.719286
2024-02-22T03:46:23.049Z,9.719078
2024-02-22T03:47:23.020Z,9.719163
2024-02-22T03:48:23.005Z,9.719003
2024-02-22T03:49:22.998Z,9.719217
2024-02-22T03:50:22.989Z,9.718974
2024-02-22T03:51:22.926Z,9.718989
2024-02-22T03:52:22.933Z,9.718907
2024-02-22T03:53:22.995Z,9.718949
2024-02-22T03:54:22.916Z,9.718892
2024-02-22T03:55:22.877Z,9.719016
2024-02-22T03:56:22.998Z,9.719075
2024-02-22T03:57:22.876Z,9.719068
2024-02-22T03:58:22.876Z,9.718877
2024-02-22T03:59:22.885Z,9.719016
2024-02-22T04:00:22.852Z,9.718925
2024-02-22T04:01:22.881Z,9.719061
2024-02-22T04:02:22.885Z,9.719030
2024-02-22T04:03:22.825Z,9.719373
2024-02-22T04:04:22.855Z,9.719303
2024-02-22T04:05:22.843Z,9.719264
2024-02-22T04:06:22.795Z,9.719104
2024-02-22T04:07:22.781Z,9.719366
2024-02-22T04:08:22.770Z,9.719264
2024-02-22T04:09:22.764Z,9.719150
2024-02-22T04:10:22.732Z,9.719284
2024-02-22T04:11:22.826Z,9.719389
2024-02-22T04:12:22.753Z,9.719433
2024-02-22T04:13:22.702Z,9.719381
2024-02-22T04:14:22.694Z,9.719322
2024-02-22T04:15:22.691Z,9.719345
2024-02-22T04:16:22.672Z,9.719193
2024-02-22T04:17:22.700Z,9.719193
2024-02-22T04:18:22.816Z,9.719164
2024-02-22T04:19:22.733Z,9.719274
2024-02-22T04:20:22.727Z,9.719335
2024-02-22T04:21:22.631Z,9.719253
2024-02-22T04:22:22.650Z,9.719090
2024-02-22T04:23:22.667Z,9.719164
2024-02-22T04:24:22.631Z,9.719299
2024-02-22T04:25:22.625Z,9.719268
2024-02-22T04:26:22.656Z,9.719182
2024-02-22T04:27:22.576Z,9.719178
2024-02-22T04:28:22.582Z,9.719178
2024-02-22T04:29:22.697Z,9.719181
2024-02-22T04:30:22.575Z,9.719254
2024-02-22T04:31:22.542Z,9.719296
2024-02-22T04:32:22.589Z,9.719290
2024-02-22T04:33:22.553Z,9.719294
2024-02-22T04:34:22.530Z,9.719294
2024-02-22T04:35:22.580Z,9.719364
2024-02-22T04:36:22.507Z,9.719392
2024-02-22T04:37:22.470Z,9.719464
2024-02-22T04:38:22.532Z,9.719388
2024-02-22T04:39:22.470Z,9.719354
2024-02-22T04:40:22.485Z,9.719086
2024-02-22T04:41:22.544Z,9.719368
2024-02-22T04:42:22.447Z,9.719641
2024-02-22T04:43:22.409Z,9.719542
2024-02-22T04:44:22.508Z,9.719666
2024-02-22T04:45:22.415Z,9.719513
2024-02-22T04:46:22.399Z,9.719333
2024-02-22T04:47:22.422Z,9.719423
2024-02-22T04:48:22.422Z,9.719435
2024-02-22T04:49:22.477Z,9.719411
2024-02-22T04:50:22.459Z,9.719202
2024-02-22T04:51:22.380Z,9.719228
2024-02-22T04:52:22.361Z,9.719154
2024-02-22T04:53:22.386Z,9.719177
2024-02-22T04:54:22.341Z,9.719195
2024-02-22T04:55:22.331Z,9.719279
2024-02-22T04:56:22.357Z,9.719225
2024-02-22T04:57:22.322Z,9.719093
2024-02-22T04:58:22.299Z,9.719187
2024-02-22T04:59:22.374Z,9.719121
2024-02-22T05:00:22.264Z,9.719332
2024-02-22T05:01:22.313Z,9.719519
2024-02-22T05:02:22.326Z,9.719637
2024-02-22T05:03:22.264Z,9.719142
2024-02-22T05:04:22.249Z,9.719142
2024-02-22T05:05:22.476Z,9.719299
2024-02-22T05:06:22.310Z,9.719299
2024-02-22T05:07:22.208Z,9.719299
2024-02-22T05:08:22.211Z,9.718815
2024-02-22T05:09:22.205Z,9.718815
2024-02-22T05:10:22.184Z,9.718815
2024-02-22T05:11:22.280Z,9.718815
2024-02-22T05:12:22.154Z,9.718815
2024-02-22T05:13:22.136Z,9.718815
2024-02-22T05:14:22.190Z,9.719386
2024-02-22T05:15:22.108Z,9.719420
2024-02-22T05:16:22.114Z,9.719317
2024-02-22T05:17:22.150Z,9.719412
2024-02-22T05:18:22.160Z,9.719368
2024-02-22T05:19:22.130Z,9.719331
2024-02-22T05:20:22.242Z,9.719399
2024-02-22T05:21:22.126Z,9.719360
2024-02-22T05:22:22.032Z,9.719514
2024-02-22T05:23:22.108Z,9.719235
2024-02-22T05:24:22.053Z,9.719353
2024-02-22T05:25:22.044Z,9.719515
2024-02-22T05:26:22.059Z,9.719513
2024-02-22T05:27:22.021Z,9.719548
2024-02-22T05:28:21.986Z,9.719187
2024-02-22T05:29:22.036Z,9.719161
2024-02-22T05:30:21.962Z,9.719040
2024-02-22T05:31:21.965Z,9.719145
2024-02-22T05:32:22.021Z,9.719120
2024-02-22T05:33:22.014Z,9.719235
2024-02-22T05:34:21.976Z,9.719172
2024-02-22T05:35:21.978Z,9.719157
2024-02-22T05:36:21.922Z,9.719145
2024-02-22T05:37:21.922Z,9.719126
2024-02-22T05:38:21.929Z,9.719128
2024-02-22T05:39:21.941Z,9.719167
2024-02-22T05:40:21.867Z,9.719179
2024-02-22T05:41:21.888Z,9.719124
2024-02-22T05:42:21.854Z,9.719156
2024-02-22T05:43:21.973Z,9.719100
2024-02-22T05:44:21.843Z,9.719151
2024-02-22T05:45:22.820Z,9.719150
2024-02-22T05:46:21.813Z,9.719131
2024-02-22T05:47:21.872Z,9.719149
2024-02-22T05:48:21.903Z,9.719129
2024-02-22T05:49:21.812Z,9.719143
2024-02-22T05:50:21.797Z,9.719174
2024-02-22T05:51:22.774Z,9.719131
2024-02-22T05:52:21.730Z,9.719131
2024-02-22T05:53:21.773Z,9.719186
2024-02-22T05:54:21.719Z,9.719165
2024-02-22T05:55:21.736Z,9.719146
2024-02-22T05:56:21.777Z,9.719105
2024-02-22T05:57:21.690Z,9.719089
2024-02-22T05:58:21.697Z,9.719166
2024-02-22T05:59:21.733Z,9.719157
2024-02-22T06:00:21.658Z,9.719085
2024-02-22T06:01:21.733Z,9.719176
2024-02-22T06:02:21.719Z,9.719218
2024-02-22T06:03:21.685Z,9.719158
2024-02-22T06:04:21.682Z,9.719125
2024-02-22T06:05:21.695Z,9.719090
2024-02-22T06:06:21.602Z,9.719219
2024-02-22T06:07:21.642Z,9.719138
2024-02-22T06:08:21.649Z,9.719306
2024-02-22T06:09:21.548Z,9.719249
2024-02-22T06:10:21.550Z,9.719173
2024-02-22T06:11:21.653Z,9.719105
2024-02-22T06:12:21.573Z,9.719116
2024-02-22T06:13:21.595Z,9.719149
2024-02-22T06:14:21.592Z,9.719150
2024-02-22T06:15:21.490Z,9.718992
2024-02-22T06:16:21.473Z,9.719098
2024-02-22T06:17:21.507Z,9.718944
2024-02-22T06:18:21.470Z,9.719131
2024-02-22T06:19:21.483Z,9.719089
2024-02-22T06:20:21.509Z,9.719087
2024-02-22T06:21:21.437Z,9.719064
2024-02-22T06:22:21.435Z,9.719218
2024-02-22T06:23:21.502Z,9.719287
2024-02-22T06:24:21.398Z,9.719331
2024-02-22T06:25:21.389Z,9.719373
2024-02-22T06:26:21.474Z,9.719387
2024-02-22T06:27:21.389Z,9.719358
2024-02-22T06:28:21.349Z,9.719365
2024-02-22T06:29:21.368Z,9.719378
2024-02-22T06:30:21.349Z,9.719270
2024-02-22T06:31:21.331Z,9.719269
2024-02-22T06:32:21.343Z,9.719252
2024-02-22T06:33:21.381Z,9.719281
2024-02-22T06:34:21.350Z,9.719259
2024-02-22T06:35:21.323Z,9.719281
2024-02-22T06:36:21.278Z,9.719330
2024-02-22T06:37:21.855Z,9.719225
2024-02-22T06:38:21.269Z,9.719185
2024-02-22T06:39:21.292Z,9.719180
2024-02-22T06:40:21.262Z,9.719239
2024-02-22T06:41:21.274Z,9.719211
2024-02-22T06:42:21.226Z,9.719248
2024-02-22T06:43:21.208Z,9.719277
2024-02-22T06:44:21.217Z,9.719296
2024-02-22T06:45:21.187Z,9.719328
2024-02-22T06:46:21.167Z,9.719314
2024-02-22T06:47:21.217Z,9.719154
2024-02-22T06:48:21.465Z,9.719261
2024-02-22T06:49:21.207Z,9.719316
2024-02-22T06:50:21.248Z,9.719282
2024-02-22T06:51:21.218Z,9.719253
2024-02-22T06:52:21.133Z,9.719364
2024-02-22T06:53:21.183Z,9.719287
2024-02-22T06:54:21.117Z,9.719321
2024-02-22T06:55:21.116Z,9.719266
2024-02-22T06:56:21.146Z,9.719132
2024-02-22T06:57:21.150Z,9.719236
2024-02-22T06:58:21.086Z,9.719275
2024-02-22T06:59:21.095Z,9.719241
2024-02-22T07:00:21.041Z,9.719277
2024-02-22T07:01:21.060Z,9.719285
2024-02-22T07:02:21.095Z,9.719327
2024-02-22T07:03:21.044Z,9.719382
2024-02-22T07:04:21.085Z,9.719316
2024-02-22T07:05:20.997Z,9.719303
2024-02-22T07:06:21.034Z,9.719346
2024-02-22T07:07:21.006Z,9.719294
2024-02-22T07:08:21.034Z,9.719345
2024-02-22T07:09:20.972Z,9.719281
2024-02-22T07:10:20.945Z,9.719243
2024-02-22T07:11:20.980Z,9.719308
2024-02-22T07:12:20.993Z,9.719367
2024-02-22T07:13:20.911Z,9.719379
2024-02-22T07:14:20.978Z,9.719316
2024-02-22T07:15:20.933Z,9.719250
2024-02-22T07:16:20.883Z,9.719188
2024-02-22T07:17:22.961Z,9.719279
2024-02-22T07:18:21.922Z,9.719359
2024-02-22T07:19:20.960Z,9.719353
2024-02-22T07:20:20.917Z,9.719325
2024-02-22T07:21:20.832Z,9.719311
2024-02-22T07:22:20.879Z,9.719391
2024-02-22T07:23:20.857Z,9.719357
2024-02-22T07:24:20.818Z,9.719414
2024-02-22T07:25:20.787Z,9.719337
2024-02-22T07:26:20.829Z,9.719269
2024-02-22T07:27:20.780Z,9.719317
2024-02-22T07:28:20.777Z,9.719326
2024-02-22T07:29:20.774Z,9.719360
2024-02-22T07:30:20.781Z,9.719256
2024-02-22T07:31:20.725Z,9.719213
2024-02-22T07:32:20.873Z,9.719230
2024-02-22T07:33:20.762Z,9.719379
2024-02-22T07:34:20.815Z,9.719181
2024-02-22T07:35:20.721Z,9.719219
2024-02-22T07:36:20.683Z,9.719302
2024-02-22T07:37:20.691Z,9.719286
2024-02-22T07:38:20.750Z,9.719354
2024-02-22T07:39:20.653Z,9.719118
2024-02-22T07:40:20.670Z,9.719242
2024-02-22T07:41:20.750Z,9.719329
2024-02-22T07:42:20.617Z,9.719200
2024-02-22T07:43:20.602Z,9.719248
2024-02-22T07:44:20.657Z,9.719168
2024-02-22T07:45:20.598Z,9.719163
2024-02-22T07:46:20.607Z,9.719303
2024-02-22T07:47:20.601Z,9.719293
2024-02-22T07:48:20.614Z,9.719300
2024-02-22T07:49:21.544Z,9.719417
2024-02-22T07:50:21.601Z,9.719387
2024-02-22T07:51:20.560Z,9.719408
2024-02-22T07:52:20.532Z,9.719082
2024-02-22T07:53:20.549Z,9.719050
2024-02-22T07:54:20.501Z,9.719199
2024-02-22T07:55:20.517Z,9.719041
2024-02-22T07:56:20.721Z,9.719292
2024-02-22T07:57:20.478Z,9.719078
2024-02-22T07:58:20.477Z,9.719015
2024-02-22T07:59:20.558Z,9.718988
2024-02-22T08:00:20.452Z,9.719094
2024-02-22T08:01:20.472Z,9.719144
2024-02-22T08:02:20.476Z,9.719328
2024-02-22T08:03:20.402Z,9.719090
2024-02-22T08:04:20.412Z,9.719165
2024-02-22T08:05:20.466Z,9.719115
2024-02-22T08:06:20.420Z,9.719126
2024-02-22T08:07:20.418Z,9.719169
2024-02-22T08:08:20.410Z,9.719193
2024-02-22T08:09:20.341Z,9.719211
2024-02-22T08:10:20.353Z,9.719193
2024-02-22T08:11:20.444Z,9.719099
2024-02-22T08:12:20.333Z,9.718984
2024-02-22T08:13:20.320Z,9.719137
2024-02-22T08:14:20.411Z,9.719082
2024-02-22T08:15:20.290Z,9.719246
2024-02-22T08:16:20.282Z,9.719408
2024-02-22T08:17:20.356Z,9.719234
2024-02-22T08:18:20.359Z,9.719086
2024-02-22T08:19:20.340Z,9.719118
2024-02-22T08:20:20.365Z,9.719132
2024-02-22T08:21:20.234Z,9.719122
2024-02-22T08:22:20.242Z,9.719204
2024-02-22T08:23:20.283Z,9.719313
2024-02-22T08:24:20.187Z,9.719287
2024-02-22T08:25:20.189Z,9.719328
2024-02-22T08:26:20.261Z,9.719273
2024-02-22T08:27:20.187Z,9.719189
2024-02-22T08:28:20.177Z,9.719276
2024-02-22T08:29:20.251Z,9.719298
2024-02-22T08:30:20.145Z,9.719191
2024-02-22T08:31:20.118Z,9.719045
2024-02-22T08:32:20.258Z,9.719038
2024-02-22T08:33:20.164Z,9.719123
2024-02-22T08:34:20.188Z,9.719172
2024-02-22T08:35:20.172Z,9.719069
2024-02-22T08:36:20.080Z,9.719182
2024-02-22T08:37:20.065Z,9.719137
2024-02-22T08:38:20.106Z,9.719053
2024-02-22T08:39:20.066Z,9.719082
2024-02-22T08:40:30.593Z,9.719123
2024-02-22T08:41:20.037Z,9.719155
2024-02-22T08:42:20.012Z,9.719139
2024-02-22T08:43:20.010Z,9.719117
2024-02-22T08:44:20.075Z,9.719069
2024-02-22T08:45:19.975Z,9.719056
2024-02-22T08:46:21.611Z,9.719081
2024-02-22T08:47:20.047Z,9.719023
2024-02-22T08:48:19.983Z,9.719071
2024-02-22T08:49:19.986Z,9.719194
2024-02-22T08:50:20.039Z,9.719088
2024-02-22T08:51:19.912Z,9.719165
2024-02-22T08:52:21.068Z,9.719263
2024-02-22T08:53:20.913Z,9.719316
2024-02-22T08:54:19.896Z,9.719226
2024-02-22T08:55:19.938Z,9.719296
2024-02-22T08:56:19.924Z,9.719228
2024-02-22T08:57:19.883Z,9.719135
2024-02-22T08:58:19.870Z,9.719271
2024-02-22T08:59:19.920Z,9.719205
2024-02-22T09:00:19.840Z,9.719066
2024-02-22T09:01:19.882Z,9.719072
2024-02-22T09:02:19.976Z,9.719202
2024-02-22T09:03:19.846Z,9.719255
2024-02-22T09:04:19.840Z,9.719226
2024-02-22T09:05:19.788Z,9.719065
2024-02-22T09:06:19.823Z,9.719115
2024-02-22T09:07:19.822Z,9.719095
2024-02-22T09:08:19.867Z,9.719239
2024-02-22T09:09:19.734Z,9.719244
2024-02-22T09:10:19.816Z,9.719068
2024-02-22T09:11:19.784Z,9.719130
2024-02-22T09:12:19.769Z,9.719189
2024-02-22T09:13:19.706Z,9.719182
2024-02-22T09:14:19.802Z,9.719202
2024-02-22T09:15:19.731Z,9.718905
2024-02-22T09:16:19.715Z,9.719135
2024-02-22T09:17:19.744Z,9.719307
2024-02-22T09:18:19.714Z,9.719278
2024-02-22T09:19:19.694Z,9.719266
2024-02-22T09:20:20.138Z,9.719099
2024-02-22T09:21:19.635Z,9.719064
2024-02-22T09:22:19.608Z,9.719202
2024-02-22T09:23:19.692Z,9.719273
2024-02-22T09:24:19.590Z,9.719148
2024-02-22T09:25:19.645Z,9.719193
2024-02-22T09:26:19.596Z,9.719172
2024-02-22T09:27:19.578Z,9.719043
2024-02-22T09:28:19.606Z,9.719110
2024-02-22T09:29:19.580Z,9.719089
2024-02-22T09:30:19.542Z,9.719107
2024-02-22T09:31:19.549Z,9.719080
2024-02-22T09:32:19.768Z,9.719064
2024-02-22T09:33:19.619Z,9.719077
2024-02-22T09:34:19.604Z,9.719110
2024-02-22T09:35:19.558Z,9.719066
2024-02-22T09:36:19.489Z,9.719055
2024-02-22T09:37:19.503Z,9.719090
2024-02-22T09:38:19.534Z,9.719133
2024-02-22T09:39:19.455Z,9.719159
2024-02-22T09:40:19.447Z,9.719266
2024-02-22T09:41:19.513Z,9.719176
2024-02-22T09:42:19.424Z,9.718894
2024-02-22T09:43:19.429Z,9.718810
2024-02-22T09:44:19.520Z,9.718927
2024-02-22T09:45:19.402Z,9.719003
2024-02-22T09:46:19.389Z,9.719064
2024-02-22T09:47:19.524Z,9.718942
2024-02-22T09:48:19.465Z,9.719020
2024-02-22T09:49:19.428Z,9.719059
2024-02-22T09:50:19.389Z,9.719230
2024-02-22T09:51:19.344Z,9.718959
2024-02-22T09:52:19.322Z,9.719108
2024-02-22T09:53:19.450Z,9.718917
2024-02-22T09:54:19.414Z,9.718960
2024-02-22T09:55:19.285Z,9.719064
2024-02-22T09:56:19.350Z,9.718960
2024-02-22T09:57:19.317Z,9.718955
2024-02-22T09:58:19.258Z,9.719055
2024-02-22T09:59:19.389Z,9.719070
2024-02-22T10:00:20.275Z,9.719006
2024-02-22T10:01:19.280Z,9.719070
2024-02-22T10:02:19.542Z,9.719074
2024-02-22T10:03:19.303Z,9.719078
2024-02-22T10:04:19.226Z,9.718929
2024-02-22T10:05:19.306Z,9.719093
2024-02-22T10:06:19.224Z,9.719125
2024-02-22T10:07:19.182Z,9.719100
2024-02-22T10:08:19.269Z,9.719041
2024-02-22T10:09:19.150Z,9.719093
2024-02-22T10:10:19.161Z,9.719129
2024-02-22T10:11:19.263Z,9.719137
2024-02-22T10:12:19.687Z,9.719084
2024-02-22T10:13:19.348Z,9.719044
2024-02-22T10:14:19.221Z,9.718998
2024-02-22T10:15:19.191Z,9.718984
2024-02-22T10:16:19.154Z,9.719070
2024-02-22T10:17:19.216Z,9.719103
2024-02-22T10:18:19.110Z,9.718944
2024-02-22T10:19:19.205Z,9.719133
2024-02-22T10:20:19.050Z,9.719306
2024-02-22T10:21:19.062Z,9.719353
2024-02-22T10:22:19.015Z,9.719040
2024-02-22T10:23:19.235Z,9.719249
2024-02-22T10:24:19.027Z,9.719115
2024-02-22T10:25:18.981Z,9.719127
2024-02-22T10:26:19.020Z,9.719105
2024-02-22T10:27:18.960Z,9.719245
2024-02-22T10:28:18.947Z,9.719090
2024-02-22T10:29:19.103Z,9.718915
2024-02-22T10:30:18.953Z,9.718852
2024-02-22T10:31:18.906Z,9.719193
2024-02-22T10:32:18.962Z,9.719096
2024-02-22T10:33:18.997Z,9.719240
2024-02-22T10:34:18.976Z,9.719167
2024-02-22T10:35:18.903Z,9.719231
2024-02-22T10:36:18.891Z,9.719255
2024-02-22T10:37:18.853Z,9.719296
2024-02-22T10:38:18.997Z,9.719062
2024-02-22T10:39:18.882Z,9.718986
2024-02-22T10:40:18.855Z,9.719092
2024-02-22T10:41:19.059Z,9.719162
2024-02-22T10:42:18.831Z,9.719167
2024-02-22T10:43:18.835Z,9.719054
2024-02-22T10:44:18.902Z,9.719237
2024-02-22T10:45:18.789Z,9.719211
2024-02-22T10:46:18.770Z,9.719193
2024-02-22T10:47:18.791Z,9.719117
2024-02-22T10:48:18.935Z,9.719260
2024-02-22T10:49:18.763Z,9.719308
2024-02-22T10:50:18.798Z,9.719248
2024-02-22T10:51:18.711Z,9.719102
2024-02-22T10:52:18.711Z,9.719069
2024-02-22T10:53:18.948Z,9.719030
2024-02-22T10:54:18.697Z,9.718991
2024-02-22T10:55:18.711Z,9.719237
2024-02-22T10:56:18.735Z,9.719224
2024-02-22T10:57:18.722Z,9.719243
2024-02-22T10:58:18.684Z,9.719167
2024-02-22T10:59:18.686Z,9.718828
2024-02-22T11:00:18.627Z,9.718513
2024-02-22T11:01:18.713Z,9.717983
2024-02-22T11:02:18.741Z,9.718213
2024-02-22T11:03:18.630Z,9.718583
2024-02-22T11:04:18.684Z,9.718545
2024-02-22T11:05:18.651Z,9.718518
2024-02-22T11:06:18.645Z,9.718483
2024-02-22T11:07:18.567Z,9.719003
2024-02-22T11:08:18.655Z,9.719084
2024-02-22T11:09:18.579Z,9.719063
2024-02-22T11:10:18.538Z,9.719186
2024-02-22T11:11:18.612Z,9.719355
2024-02-22T11:12:18.592Z,9.719196
2024-02-22T11:13:18.524Z,9.719321
2024-02-22T11:14:19.590Z,9.719374
2024-02-22T11:15:18.568Z,9.719311
2024-02-22T11:16:18.493Z,9.719336
2024-02-22T11:17:18.584Z,9.719414
2024-02-22T11:18:18.522Z,9.719646
2024-02-22T11:19:18.558Z,9.719995
2024-02-22T11:20:18.630Z,9.719385
2024-02-22T11:21:18.462Z,9.719060
2024-02-22T11:22:20.860Z,9.719076
2024-02-22T11:23:19.608Z,9.719648
2024-02-22T11:24:18.470Z,9.719166
2024-02-22T11:25:18.400Z,9.718999
2024-02-22T11:26:18.396Z,9.719196
2024-02-22T11:27:18.396Z,9.719163
2024-02-22T11:28:18.392Z,9.718894
2024-02-22T11:29:18.423Z,9.719164
2024-02-22T11:30:18.381Z,9.719602
2024-02-22T11:31:18.358Z,9.719620
2024-02-22T11:32:22.260Z,9.719468
2024-02-22T11:33:19.419Z,9.719236
2024-02-22T11:34:18.339Z,9.719086
2024-02-22T11:35:18.356Z,9.719299
2024-02-22T11:36:18.309Z,9.719332
2024-02-22T11:37:18.452Z,9.719443
2024-02-22T11:38:18.352Z,9.719285
2024-02-22T11:39:18.268Z,9.719459
2024-02-22T11:40:18.274Z,9.719537
2024-02-22T11:41:18.333Z,9.719498
2024-02-22T11:42:18.214Z,9.719494
2024-02-22T11:43:18.236Z,9.719374
2024-02-22T11:44:18.285Z,9.719349